createdAt,value
2017-11-28T00:01:12.438Z,0.60
2017-11-28T00:03:41.624Z,0.60
2017-11-28T00:06:11.040Z,0.50
2017-11-28T00:08:40.266Z,0.83
2017-11-28T00:11:08.636Z,0.53
2017-11-28T00:13:37.055Z,0.63
2017-11-28T00:16:05.782Z,0.60
2017-11-28T00:18:35.124Z,0.70
2017-11-28T00:21:03.892Z,0.50
2017-11-28T00:23:32.363Z,0.60
2017-11-28T00:26:01.010Z,0.50
2017-11-28T00:28:29.529Z,0.50
2017-11-28T00:30:58.131Z,0.80
2017-11-28T00:33:26.513Z,0.87
2017-11-28T00:35:54.978Z,0.50
2017-11-28T00:38:23.391Z,0.80
2017-11-28T00:40:52.793Z,0.77
2017-11-28T00:43:21.556Z,0.83
2017-11-28T00:45:50.144Z,0.73
2017-11-28T00:48:18.504Z,1.37
2017-11-28T00:50:46.949Z,0.80
2017-11-28T00:53:15.334Z,0.90
2017-11-28T00:55:43.859Z,0.77
2017-11-28T00:58:12.442Z,1.00
2017-11-28T01:00:40.985Z,0.70
2017-11-28T01:03:09.400Z,0.57
2017-11-28T01:05:37.882Z,0.50
2017-11-28T01:08:06.362Z,0.60
2017-11-28T01:10:34.778Z,0.60
2017-11-28T01:13:03.246Z,0.40
2017-11-28T01:15:31.801Z,0.50
2017-11-28T01:18:00.169Z,0.70
2017-11-28T01:20:29.375Z,0.60
2017-11-28T01:22:58.637Z,0.60
2017-11-28T01:25:27.155Z,0.70
2017-11-28T01:27:56.352Z,0.77
2017-11-28T01:30:24.832Z,0.60
2017-11-28T01:32:53.211Z,1.03
2017-11-28T01:35:21.754Z,0.70
2017-11-28T01:37:50.272Z,1.00
2017-11-28T01:40:19.459Z,0.70
2017-11-28T01:42:48.771Z,0.80
2017-11-28T01:45:17.162Z,1.00
2017-11-28T01:47:45.577Z,0.73
2017-11-28T01:50:13.934Z,0.80
2017-11-28T01:52:42.297Z,0.80
2017-11-28T01:55:10.676Z,0.80
2017-11-28T01:57:39.137Z,0.70
2017-11-28T02:00:08.254Z,0.70
2017-11-28T02:02:36.658Z,1.00
2017-11-28T02:05:05.072Z,0.80
2017-11-28T02:07:33.486Z,0.60
2017-11-28T02:10:01.886Z,0.90
2017-11-28T02:12:30.334Z,0.70
2017-11-28T02:14:59.795Z,0.60
2017-11-28T02:17:28.116Z,0.90
2017-11-28T02:19:57.401Z,1.00
2017-11-28T02:22:25.775Z,2.07
2017-11-28T02:24:54.182Z,2.57
2017-11-28T02:27:23.409Z,1.70
2017-11-28T02:29:51.860Z,1.10
2017-11-28T02:32:21.030Z,1.00
2017-11-28T02:34:49.440Z,1.53
2017-11-28T02:37:17.814Z,1.10
2017-11-28T02:39:46.897Z,1.30
2017-11-28T02:42:16.108Z,1.10
2017-11-28T02:44:45.435Z,1.03
2017-11-28T02:47:14.095Z,0.80
2017-11-28T02:49:57.103Z,0.60
2017-11-28T02:52:25.493Z,0.50
2017-11-28T02:55:15.546Z,0.70
2017-11-28T02:57:43.943Z,0.60
2017-11-28T03:00:12.341Z,0.73
2017-11-28T03:02:41.462Z,0.83
2017-11-28T03:05:09.913Z,0.60
2017-11-28T03:07:39.110Z,0.60
2017-11-28T03:13:06.854Z,0.80
2017-11-28T03:15:38.738Z,0.80
2017-11-28T03:18:20.547Z,1.10
2017-11-28T03:20:55.538Z,1.10
2017-11-28T03:26:32.331Z,1.20
2017-11-28T03:29:26.359Z,1.17
2017-11-28T03:31:55.713Z,0.77
2017-11-28T03:34:24.129Z,0.97
2017-11-28T03:36:53.403Z,0.70
2017-11-28T03:39:21.798Z,0.83
2017-11-28T03:41:50.224Z,0.77
2017-11-28T03:44:33.022Z,0.80
2017-11-28T03:47:01.494Z,0.73
2017-11-28T03:49:30.686Z,0.50
2017-11-28T03:52:00.715Z,0.40
2017-11-28T03:54:29.914Z,0.50
2017-11-28T03:56:58.374Z,0.40
2017-11-28T03:59:26.817Z,0.50
2017-11-28T04:01:55.361Z,0.40
2017-11-28T04:04:23.762Z,0.47
2017-11-28T04:06:52.244Z,0.40
2017-11-28T04:09:20.610Z,0.40
2017-11-28T04:11:49.001Z,0.40
2017-11-28T04:14:17.410Z,0.43
2017-11-28T04:16:45.817Z,0.40
2017-11-28T04:19:14.342Z,0.40
2017-11-28T04:21:42.718Z,0.40
2017-11-28T04:24:11.097Z,0.40
2017-11-28T04:26:39.535Z,0.50
2017-11-28T04:29:07.913Z,0.40
2017-11-28T04:31:37.049Z,0.40
2017-11-28T04:34:05.521Z,0.37
2017-11-28T04:36:33.975Z,0.50
2017-11-28T04:39:03.178Z,0.50
2017-11-28T04:41:31.549Z,0.50
2017-11-28T04:44:00.745Z,0.40
2017-11-28T04:46:29.076Z,0.50
2017-11-28T04:48:57.455Z,0.43
2017-11-28T04:51:25.826Z,0.57
2017-11-28T04:53:54.204Z,0.53
2017-11-28T04:56:22.667Z,0.50
2017-11-28T04:58:51.143Z,0.60
2017-11-28T05:01:19.577Z,0.50
2017-11-28T05:03:47.983Z,0.60
2017-11-28T05:06:16.356Z,1.10
2017-11-28T05:08:44.731Z,1.00
2017-11-28T05:11:13.150Z,0.87
2017-11-28T05:13:41.720Z,1.07
2017-11-28T05:16:10.380Z,0.87
2017-11-28T05:18:38.757Z,0.80
2017-11-28T05:21:07.160Z,0.60
2017-11-28T05:23:35.503Z,0.60
2017-11-28T05:26:03.892Z,0.67
2017-11-28T05:28:32.272Z,0.70
2017-11-28T05:31:00.648Z,0.77
2017-11-28T05:33:28.961Z,0.73
2017-11-28T05:35:57.302Z,0.50
2017-11-28T05:38:25.694Z,0.60
2017-11-28T05:40:54.845Z,0.67
2017-11-28T05:43:23.246Z,0.47
2017-11-28T05:45:52.428Z,0.60
2017-11-28T05:48:20.791Z,1.00
2017-11-28T05:50:49.138Z,0.40
2017-11-28T05:53:21.889Z,0.60
2017-11-28T05:55:50.307Z,0.80
2017-11-28T05:58:19.675Z,0.70
2017-11-28T06:00:52.147Z,0.60
2017-11-28T06:03:20.581Z,0.70
2017-11-28T06:05:48.921Z,1.03
2017-11-28T06:08:19.206Z,0.50
2017-11-28T06:10:47.526Z,0.50
2017-11-28T06:13:16.591Z,0.60
2017-11-28T06:15:44.894Z,0.80
2017-11-28T06:18:13.214Z,0.80
2017-11-28T06:20:41.510Z,0.67
2017-11-28T06:23:09.806Z,0.70
2017-11-28T06:25:38.122Z,0.70
2017-11-28T06:28:07.175Z,0.83
2017-11-28T06:30:35.463Z,0.73
2017-11-28T06:33:03.769Z,1.00
2017-11-28T06:35:36.733Z,0.90
2017-11-28T06:38:05.807Z,0.80
2017-11-28T06:40:35.237Z,1.20
2017-11-28T06:43:04.311Z,1.50
2017-11-28T06:45:32.612Z,1.93
2017-11-28T06:48:01.746Z,2.90
2017-11-28T06:50:30.039Z,2.83
2017-11-28T06:52:58.357Z,3.23
2017-11-28T06:55:28.346Z,1.73
2017-11-28T06:57:56.651Z,1.60
2017-11-28T07:00:25.467Z,1.50
2017-11-28T07:02:54.565Z,1.40
2017-11-28T07:05:22.866Z,1.33
2017-11-28T07:07:51.170Z,1.20
2017-11-28T07:10:19.482Z,1.80
2017-11-28T07:12:48.560Z,1.50
2017-11-28T07:15:16.897Z,1.30
2017-11-28T07:17:45.198Z,1.20
2017-11-28T07:20:14.429Z,1.00
2017-11-28T07:22:43.492Z,1.43
2017-11-28T07:25:11.793Z,1.20
2017-11-28T07:27:40.869Z,1.20
2017-11-28T07:30:09.170Z,0.87
2017-11-28T07:32:38.258Z,1.10
2017-11-28T07:35:07.327Z,0.87
2017-11-28T07:37:35.609Z,1.10
2017-11-28T07:40:03.918Z,1.13
2017-11-28T07:42:32.972Z,0.97
2017-11-28T07:45:01.274Z,1.47
2017-11-28T07:47:30.338Z,1.07
2017-11-28T07:49:58.646Z,1.30
2017-11-28T07:52:27.707Z,1.50
2017-11-28T07:54:56.030Z,1.00
2017-11-28T07:57:25.102Z,0.90
2017-11-28T07:59:53.394Z,1.37
2017-11-28T08:02:22.469Z,1.90
2017-11-28T08:04:50.753Z,1.43
2017-11-28T08:07:19.064Z,1.53
2017-11-28T08:09:47.362Z,1.50
2017-11-28T08:12:15.690Z,1.60
2017-11-28T08:14:43.978Z,1.73
2017-11-28T08:17:13.049Z,1.57
2017-11-28T08:19:41.362Z,1.23
2017-11-28T08:22:09.682Z,1.30
2017-11-28T08:24:37.974Z,1.07
2017-11-28T08:27:06.281Z,1.63
2017-11-28T08:29:35.344Z,0.97
2017-11-28T08:32:03.653Z,1.60
2017-11-28T08:34:32.717Z,1.30
2017-11-28T08:37:01.023Z,1.30
2017-11-28T08:39:30.086Z,1.33
2017-11-28T08:41:58.411Z,1.67
2017-11-28T08:44:26.710Z,1.53
2017-11-28T08:46:55.007Z,1.47
2017-11-28T08:49:23.322Z,1.40
2017-11-28T08:51:52.400Z,1.20
2017-11-28T08:54:20.689Z,1.00
2017-11-28T08:56:48.988Z,1.10
2017-11-28T08:59:18.068Z,1.20
2017-11-28T09:01:47.135Z,1.53
2017-11-28T09:04:15.454Z,1.57
2017-11-28T09:06:44.514Z,1.50
2017-11-28T09:09:12.855Z,1.20
2017-11-28T09:11:41.149Z,1.30
2017-11-28T09:14:10.223Z,1.63
2017-11-28T09:16:38.546Z,1.07
2017-11-28T09:19:06.858Z,1.97
2017-11-28T09:21:35.183Z,1.20
2017-11-28T09:24:03.488Z,1.30
2017-11-28T09:26:31.785Z,1.37
2017-11-28T09:29:00.087Z,1.80
2017-11-28T09:31:28.401Z,1.47
2017-11-28T09:33:56.778Z,1.40
2017-11-28T09:36:25.067Z,1.20
2017-11-28T09:38:53.698Z,1.70
2017-11-28T09:41:21.993Z,1.43
2017-11-28T09:43:50.295Z,1.20
2017-11-28T09:46:18.583Z,1.20
2017-11-28T09:48:46.882Z,1.30
2017-11-28T09:51:15.946Z,1.40
2017-11-28T09:53:44.223Z,1.77
2017-11-28T09:56:13.141Z,1.77
2017-11-28T09:58:42.236Z,1.60
2017-11-28T10:01:10.555Z,1.80
2017-11-28T10:03:38.849Z,4.63
2017-11-28T10:06:07.149Z,4.00
2017-11-28T10:08:35.441Z,1.63
2017-11-28T10:11:04.510Z,1.80
2017-11-28T10:13:32.830Z,1.73
2017-11-28T10:16:01.903Z,1.90
2017-11-28T10:18:30.190Z,1.83
2017-11-28T10:20:59.280Z,1.60
2017-11-28T10:23:28.343Z,2.30
2017-11-28T10:25:56.666Z,2.13
2017-11-28T10:28:25.734Z,1.47
2017-11-28T10:30:54.042Z,1.77
2017-11-28T10:33:22.360Z,1.97
2017-11-28T10:35:51.182Z,1.73
2017-11-28T10:38:19.498Z,1.57
2017-11-28T10:40:47.805Z,1.50
2017-11-28T10:43:16.112Z,1.90
2017-11-28T10:45:44.395Z,2.20
2017-11-28T10:48:13.469Z,1.43
2017-11-28T10:50:41.764Z,1.70
2017-11-28T10:53:10.837Z,2.73
2017-11-28T10:55:39.135Z,1.53
2017-11-28T10:58:07.451Z,2.57
2017-11-28T11:00:35.748Z,1.67
2017-11-28T11:03:04.054Z,1.50
2017-11-28T11:05:32.366Z,2.27
2017-11-28T11:08:01.471Z,1.50
2017-11-28T11:10:29.766Z,1.17
2017-11-28T11:12:58.065Z,1.20
2017-11-28T11:15:26.373Z,1.57
2017-11-28T11:17:54.668Z,1.50
2017-11-28T11:20:22.965Z,1.57
2017-11-28T11:22:51.260Z,1.20
2017-11-28T11:25:19.561Z,1.00
2017-11-28T11:27:47.859Z,1.07
2017-11-28T11:30:16.182Z,1.57
2017-11-28T11:32:44.467Z,1.90
2017-11-28T11:35:12.765Z,1.40
2017-11-28T11:37:41.064Z,2.00
2017-11-28T11:40:09.361Z,1.60
2017-11-28T11:42:37.661Z,1.50
2017-11-28T11:45:05.970Z,1.27
2017-11-28T11:47:34.271Z,1.73
2017-11-28T11:50:03.342Z,1.37
2017-11-28T11:52:31.638Z,1.40
2017-11-28T11:55:00.086Z,1.23
2017-11-28T11:57:28.371Z,1.53
2017-11-28T11:59:56.689Z,1.57
2017-11-28T12:02:25.015Z,1.90
2017-11-28T12:04:53.313Z,1.80
2017-11-28T12:07:21.622Z,1.57
2017-11-28T12:09:50.675Z,1.60
2017-11-28T12:12:18.994Z,1.53
2017-11-28T12:14:48.066Z,1.60
2017-11-28T12:17:16.369Z,1.53
2017-11-28T12:19:45.434Z,1.43
2017-11-28T12:22:13.775Z,1.50
2017-11-28T12:24:42.068Z,1.90
2017-11-28T12:27:10.394Z,2.60
2017-11-28T12:29:39.444Z,1.50
2017-11-28T12:32:07.755Z,1.37
2017-11-28T12:34:36.810Z,1.60
2017-11-28T12:37:05.131Z,1.63
2017-11-28T12:39:34.190Z,1.30
2017-11-28T12:42:02.530Z,1.33
2017-11-28T12:44:30.858Z,1.67
2017-11-28T12:46:59.162Z,1.50
2017-11-28T12:49:28.235Z,2.93
2017-11-28T12:51:56.521Z,1.50
2017-11-28T12:54:24.830Z,1.43
2017-11-28T12:56:53.118Z,1.30
2017-11-28T12:59:23.034Z,1.77
2017-11-28T13:01:51.326Z,1.40
2017-11-28T13:04:19.633Z,1.30
2017-11-28T13:06:47.945Z,1.33
2017-11-28T13:09:16.280Z,1.70
2017-11-28T13:11:44.578Z,2.90
2017-11-28T13:14:12.890Z,1.70
2017-11-28T13:16:41.197Z,1.80
2017-11-28T13:19:10.269Z,1.47
2017-11-28T13:21:38.564Z,1.60
2017-11-28T13:24:06.896Z,1.23
2017-11-28T13:26:35.959Z,2.07
2017-11-28T13:29:04.259Z,1.40
2017-11-28T13:31:33.336Z,2.00
2017-11-28T13:34:01.636Z,2.10
2017-11-28T13:36:30.702Z,1.73
2017-11-28T13:38:59.003Z,1.60
2017-11-28T13:41:28.074Z,1.93
2017-11-28T13:43:56.382Z,1.73
2017-11-28T13:46:25.454Z,1.93
2017-11-28T13:48:53.766Z,1.80
2017-11-28T13:51:22.070Z,2.57
2017-11-28T13:53:50.370Z,1.50
2017-11-28T13:56:18.742Z,1.70
2017-11-28T13:58:47.085Z,1.53
2017-11-28T14:01:15.402Z,1.40
2017-11-28T14:03:43.702Z,1.20
2017-11-28T14:06:12.006Z,1.70
2017-11-28T14:08:40.359Z,1.60
2017-11-28T14:11:08.699Z,1.60
2017-11-28T14:13:36.989Z,1.70
2017-11-28T14:16:05.310Z,1.80
2017-11-28T14:18:33.615Z,1.73
2017-11-28T14:21:04.665Z,1.40
2017-11-28T14:23:38.570Z,1.80
2017-11-28T14:29:20.340Z,1.63
2017-11-28T14:32:07.051Z,2.37
2017-11-28T14:34:39.459Z,1.50
2017-11-28T14:37:07.758Z,1.50
2017-11-28T14:39:36.058Z,1.70
2017-11-28T14:42:09.938Z,2.00
2017-11-28T14:44:44.374Z,1.60
2017-11-28T14:47:13.678Z,1.63
2017-11-28T14:49:42.224Z,1.90
2017-11-28T15:08:56.543Z,2.60
2017-11-28T15:11:39.789Z,1.63
2017-11-28T15:17:21.482Z,2.10
2017-11-28T15:19:52.355Z,1.80
2017-11-28T15:22:20.817Z,1.73
2017-11-28T15:24:50.072Z,1.40
2017-11-28T15:27:19.371Z,1.90
2017-11-28T15:29:47.792Z,1.70
2017-11-28T15:32:16.208Z,1.93
2017-11-28T15:34:45.156Z,1.80
2017-11-28T15:37:13.510Z,1.50
2017-11-28T15:39:41.856Z,2.27
2017-11-28T15:42:10.218Z,2.27
2017-11-28T15:44:38.675Z,1.83
2017-11-28T15:47:07.775Z,1.67
2017-11-28T15:49:36.834Z,2.00
2017-11-28T15:52:05.152Z,2.03
2017-11-28T15:54:34.219Z,1.80
2017-11-28T15:57:02.525Z,2.13
2017-11-28T15:59:31.600Z,1.80
2017-11-28T16:01:59.905Z,2.27
2017-11-28T16:04:28.198Z,1.90
2017-11-28T16:06:56.515Z,1.97
2017-11-28T16:09:24.831Z,1.80
2017-11-28T16:11:53.898Z,1.87
2017-11-28T16:14:22.227Z,1.47
2017-11-28T16:16:50.556Z,2.13
2017-11-28T16:19:18.852Z,1.37
2017-11-28T16:21:47.157Z,1.40
2017-11-28T16:24:15.522Z,1.90
2017-11-28T16:26:43.913Z,1.80
2017-11-28T16:29:12.232Z,1.53
2017-11-28T16:31:40.549Z,1.60
2017-11-28T16:34:08.858Z,1.50
2017-11-28T16:36:37.196Z,1.60
2017-11-28T16:39:05.462Z,1.50
2017-11-28T16:41:34.563Z,1.40
2017-11-28T16:44:03.616Z,1.83
2017-11-28T16:46:31.924Z,1.97
2017-11-28T16:49:00.221Z,1.80
2017-11-28T16:51:29.279Z,1.93
2017-11-28T16:53:57.585Z,1.60
2017-11-28T16:56:26.661Z,1.87
2017-11-28T16:58:54.990Z,1.73
2017-11-28T17:01:23.309Z,2.20
2017-11-28T17:03:52.302Z,2.13
2017-11-28T17:06:20.624Z,2.33
2017-11-28T17:08:48.911Z,1.60
2017-11-28T17:11:17.207Z,2.13
2017-11-28T17:13:46.283Z,1.80
2017-11-28T17:16:14.591Z,2.27
2017-11-28T17:18:42.891Z,2.33
2017-11-28T17:21:11.210Z,3.20
2017-11-28T17:23:39.514Z,3.10
2017-11-28T17:26:07.815Z,3.83
2017-11-28T17:28:36.155Z,2.10
2017-11-28T17:31:04.474Z,2.37
2017-11-28T17:33:32.802Z,2.20
2017-11-28T17:36:01.115Z,2.43
2017-11-28T17:38:29.424Z,2.80
2017-11-28T17:40:57.719Z,3.30
2017-11-28T17:43:26.037Z,3.60
2017-11-28T17:45:54.333Z,3.00
2017-11-28T17:48:22.626Z,3.20
2017-11-28T17:50:51.697Z,3.40
2017-11-28T17:53:19.989Z,2.83
2017-11-28T17:55:48.281Z,2.70
2017-11-28T17:58:17.350Z,2.90
2017-11-28T18:00:45.696Z,2.50
2017-11-28T18:03:14.074Z,2.47
2017-11-28T18:05:42.382Z,3.20
2017-11-28T18:08:10.674Z,2.87
2017-11-28T18:10:38.980Z,3.70
2017-11-28T18:13:07.283Z,3.40
2017-11-28T18:15:35.583Z,3.23
2017-11-28T18:18:03.889Z,3.67
2017-11-28T18:20:32.962Z,3.30
2017-11-28T18:23:01.262Z,3.27
2017-11-28T18:25:30.316Z,4.20
2017-11-28T18:27:58.681Z,3.30
2017-11-28T18:30:26.969Z,4.00
2017-11-28T18:32:55.249Z,4.63
2017-11-28T18:35:23.552Z,3.80
2017-11-28T18:37:51.843Z,5.70
2017-11-28T18:40:20.939Z,5.10
2017-11-28T18:42:50.002Z,4.20
2017-11-28T18:45:18.292Z,4.87
2017-11-28T18:47:46.589Z,4.73
2017-11-28T18:50:15.643Z,4.70
2017-11-28T18:52:43.937Z,4.97
2017-11-28T18:55:12.229Z,6.17
2017-11-28T18:57:41.319Z,5.03
2017-11-28T19:00:10.386Z,4.80
2017-11-28T19:02:38.709Z,5.00
2017-11-28T19:05:07.767Z,5.40
2017-11-28T19:07:36.067Z,5.50
2017-11-28T19:10:04.414Z,5.47
2017-11-28T19:12:32.703Z,5.23
2017-11-28T19:15:01.011Z,5.23
2017-11-28T19:17:30.069Z,5.23
2017-11-28T19:19:58.367Z,5.50
2017-11-28T19:22:26.659Z,6.87
2017-11-28T19:24:55.713Z,7.47
2017-11-28T19:27:24.004Z,6.20
2017-11-28T19:29:52.292Z,5.97
2017-11-28T19:32:20.612Z,6.30
2017-11-28T19:34:48.913Z,7.20
2017-11-28T19:37:17.235Z,6.90
2017-11-28T19:39:46.293Z,7.10
2017-11-28T19:42:14.589Z,6.97
2017-11-28T19:44:42.891Z,7.07
2017-11-28T19:47:11.954Z,7.80
2017-11-28T19:49:40.269Z,7.20
2017-11-28T19:52:09.338Z,7.97
2017-11-28T19:54:37.778Z,8.40
2017-11-28T19:57:06.137Z,8.17
2017-11-28T19:59:34.452Z,7.90
2017-11-28T20:02:02.866Z,7.00
2017-11-28T20:04:31.258Z,8.67
2017-11-28T20:06:59.571Z,9.47
2017-11-28T20:09:27.894Z,8.77
2017-11-28T20:11:56.191Z,7.40
2017-11-28T20:14:24.506Z,8.73
2017-11-28T20:16:53.571Z,10.10
2017-11-28T20:19:21.866Z,7.57
2017-11-28T20:21:50.177Z,8.60
2017-11-28T20:24:19.230Z,10.00
2017-11-28T20:26:47.535Z,9.60
2017-11-28T20:32:16.038Z,9.50
2017-11-28T20:34:44.359Z,9.63
2017-11-28T20:37:12.666Z,8.67
2017-11-28T20:39:40.995Z,8.77
2017-11-28T20:42:10.112Z,9.77
2017-11-28T20:44:38.427Z,9.00
2017-11-28T20:47:06.738Z,10.63
2017-11-28T20:49:35.075Z,10.00
2017-11-28T20:52:03.387Z,9.20
2017-11-28T20:54:31.714Z,10.07
2017-11-28T20:57:00.019Z,9.73
2017-11-28T20:59:28.379Z,9.87
2017-11-28T21:01:56.688Z,9.40
2017-11-28T21:04:25.000Z,10.53
2017-11-28T21:06:54.094Z,9.80
2017-11-28T21:09:23.158Z,10.70
2017-11-28T21:11:51.467Z,10.03
2017-11-28T21:14:20.530Z,10.00
2017-11-28T21:16:48.850Z,10.03
2017-11-28T21:19:17.259Z,10.90
2017-11-28T21:21:45.588Z,11.23
2017-11-28T21:24:14.667Z,10.37
2017-11-28T21:26:42.975Z,10.77
2017-11-28T21:29:12.059Z,11.03
2017-11-28T21:31:41.135Z,11.60
2017-11-28T21:34:09.450Z,10.30
2017-11-28T21:36:37.747Z,11.63
2017-11-28T21:39:06.075Z,11.17
2017-11-28T21:41:34.382Z,10.97
2017-11-28T21:44:02.683Z,11.07
2017-11-28T21:46:31.003Z,10.13
2017-11-28T21:48:59.327Z,11.30
2017-11-28T21:51:27.638Z,10.10
2017-11-28T21:53:55.948Z,10.77
2017-11-28T21:56:25.035Z,9.60
2017-11-28T21:58:53.351Z,10.10
2017-11-28T22:01:21.664Z,9.90
2017-11-28T22:03:50.113Z,10.10
2017-11-28T22:06:18.414Z,9.10
2017-11-28T22:08:46.748Z,10.40
2017-11-28T22:11:15.077Z,9.70
2017-11-28T22:13:44.153Z,9.33
2017-11-28T22:16:12.468Z,10.30
2017-11-28T22:18:40.787Z,9.23
2017-11-28T22:21:09.094Z,9.17
2017-11-28T22:23:37.431Z,11.83
2017-11-28T22:26:05.752Z,11.10
2017-11-28T22:28:34.070Z,9.70
2017-11-28T22:31:02.408Z,11.53
2017-11-28T22:33:30.721Z,11.10
2017-11-28T22:35:59.055Z,11.00
2017-11-28T22:38:27.375Z,10.97
2017-11-28T22:40:55.715Z,13.37
2017-11-28T22:43:24.021Z,11.50
2017-11-28T22:45:52.340Z,10.87
2017-11-28T22:48:20.680Z,12.20
2017-11-28T22:50:48.990Z,12.77
2017-11-28T22:53:17.312Z,11.47
2017-11-28T22:55:45.634Z,11.40
2017-11-28T22:58:14.048Z,10.37
2017-11-28T23:00:42.356Z,11.30
2017-11-28T23:03:10.698Z,11.33
2017-11-28T23:05:39.016Z,11.30
2017-11-28T23:08:07.320Z,11.77
2017-11-28T23:10:36.397Z,10.97
2017-11-28T23:13:04.713Z,10.07
2017-11-28T23:15:33.032Z,9.60
2017-11-28T23:18:01.347Z,11.87
2017-11-28T23:20:30.441Z,12.27
2017-11-28T23:22:59.507Z,10.30
2017-11-28T23:25:27.812Z,9.07
2017-11-28T23:27:56.884Z,11.47
2017-11-28T23:30:25.215Z,10.43
2017-11-28T23:32:53.518Z,10.10
2017-11-28T23:35:21.824Z,10.50
2017-11-28T23:37:50.136Z,8.37
2017-11-28T23:40:18.446Z,10.30
2017-11-28T23:42:46.772Z,10.53
2017-11-28T23:45:15.834Z,9.50
2017-11-28T23:47:44.176Z,9.73
2017-11-28T23:50:12.470Z,9.80
2017-11-28T23:52:40.780Z,10.00
2017-11-28T23:55:09.098Z,9.13
2017-11-28T23:57:37.394Z,9.53
